Oakfield, GA (31772)

3:41 PM EST on February 06, 2016 (GMT -0500)
Lyle Farms | | Change Station
CLOSE
Current Station
Personal Weather Station
Location: Cobb, GA
Elevation: 285 ft
Nearby Weather Stations

Elev 285 ft 31.98 °N, 83.96 °W | Updated 7 minutes ago

Overcast
Overcast
49.5 °F
Feels Like 50 °F
N
0.0
Wind Variable Wind from SW
Gusts 5.0 mph

Today
High -- | Low -- °F
--% Chance of Precip.
Yesterday
High -- | Low -- °F
Precip. -- in
Pressure 30.26 in
Visibility 10.0 miles
Clouds Overcast 4900 ft
Windchill 50 °F
Dew Point 29 °F
Humidity 45%
Rainfall 0.00 in
Snow Depth Not available.
7:25 AM 6:14 PM
Waning Crescent, 4% visible
METAR KCKF 062015Z AUTO 03005KT 10SM OVC049 11/M04 A3026 RMK AO2 T01051037
Pressure 30.26 in
Visibility 10.0 miles
Clouds Overcast 4900 ft
Windchill 50 °F
Dew Point 29 °F
Humidity 45%
Rainfall 0.00 in
Snow Depth Not available.
7:25 AM 6:14 PM
Waning Crescent, 4% visible
METAR KCKF 062015Z AUTO 03005KT 10SM OVC049 11/M04 A3026 RMK AO2 T01051037

10-Day Weather Forecast

Almanac

Astronomy

Feb. 06, 2016 Rise Set
Actual Time
Civil Twilight
Nautical Twilight
Astronomical Twilight
Moon
Length of Visible Light
Length of Day
Tomorrow will be .
, % of the Moon is Illuminated

Today's Extremes

State Highs State Lows

Community

WunderPhotos

Upload Photos

1,891,046 photos uploaded!

WunderBlog® & News

Nearby

Air Quality

  Air Quality AQ Index Pollutant
Not available.

Snow Depth

Station Depth Elevation

Earthquake Activity

City Distance Mag. Time & Date
Minimum magnitude displayed is 2.5.

Coastal Water Temperatures

Place Temperature

Stations

Nearby Weather Stations

Station Location Temp. Windchill Dew Point Humidity Wind Precip. Elev Updated Type
                   

Watches & Warnings

There are currently no watches in effect.